Original METAR for KLWC:
072252Z 16007KT 10SM CLR 36/23 A2994 RMK AO1 SLP128 T03560228 $

Wind: 160° at 7 knots
Visibility: 10 statute miles
Sky conditions: Clear
Temperature: 96.8°F
Dew Point: 73.4°F
Altimeter: 29.94

Remarks:
-- METAR generated by an automated station.
-- Sea level pressure: 1,012.8 millibars.
-- Precise hourly temperature and dew point: 35.6°C / 22.8°C

NOTE:
This METAR was retrieved from metars.com at:
http://www.metars.com/stations/KLWC.html


Cessnas2Oshkosh, C2O, CessnaBaseCamp and The Pirep | Testimonials | Donations | FAQ | Privacy | Contact Us
are trademarks of Cessnas 2 Oshkosh, Inc. - Dothan, AL Copyright © 2008 - 2022 Cessnas 2 Oshkosh, Inc. All rights reserved.